Time;durP1;ratioP1;P1;durP2;ratioP2;P2;SDS_P1;SDS_P2;PMS_P1;PMS_P2;Temp;Humidity;BMP_temperature;BMP_pressure;BME280_temperature;BME280_humidity;BME280_pressure;Samples;Min_cycle;Max_cycle;Signal;HPM_P1;HPM_P2
2022/01/09 00:00:12;;;;;;;3.90;1.17;;;;;;;;;;5024226;28;20188;-45
2022/01/09 00:02:38;;;;;;;1.63;1.13;;;;;;;;;;5037610;28;20204;-45
2022/01/09 00:05:05;;;;;;;1.83;1.10;;;;;;;;;;5036521;28;20226;-45
2022/01/09 00:07:31;;;;;;;0.80;0.80;;;;;;;;;;5024676;28;20179;-45
2022/01/09 00:09:57;;;;;;;3.30;1.25;;;;;;;;;;5034838;28;20258;-45
2022/01/09 00:12:23;;;;;;;2.72;1.30;;;;;;;;;;5040125;28;20276;-45
2022/01/09 00:14:49;;;;;;;1.80;1.00;;;;;;;;;;5026467;28;20643;-46
2022/01/09 00:17:15;;;;;;;1.00;0.90;;;;;;;;;;5024460;28;20234;-46
2022/01/09 00:19:41;;;;;;;1.30;0.90;;;;;;;;;;5028866;28;20483;-46
2022/01/09 00:22:08;;;;;;;1.65;1.00;;;;;;;;;;5032829;28;20184;-46
2022/01/09 00:24:34;;;;;;;1.55;0.95;;;;;;;;;;5030053;28;20212;-46
2022/01/09 00:27:00;;;;;;;2.83;1.00;;;;;;;;;;5029250;28;20184;-46
2022/01/09 00:29:26;;;;;;;1.90;0.82;;;;;;;;;;5033766;28;20223;-46
2022/01/09 00:31:52;;;;;;;3.25;0.82;;;;;;;;;;5032204;28;20180;-45
2022/01/09 00:34:18;;;;;;;1.52;1.05;;;;;;;;;;5030892;28;20306;-46
2022/01/09 00:36:44;;;;;;;1.38;1.17;;;;;;;;;;5036572;28;20510;-46
2022/01/09 00:39:10;;;;;;;1.08;0.95;;;;;;;;;;5043258;28;20237;-46
2022/01/09 00:41:36;;;;;;;1.38;0.93;;;;;;;;;;5034012;28;20700;-46
2022/01/09 00:44:02;;;;;;;3.17;0.90;;;;;;;;;;5044503;28;20218;-46
2022/01/09 00:46:28;;;;;;;0.88;0.88;;;;;;;;;;5041900;28;20663;-46
2022/01/09 00:48:54;;;;;;;2.53;1.00;;;;;;;;;;5030113;28;20180;-46
2022/01/09 00:51:20;;;;;;;0.70;0.70;;;;;;;;;;5029235;28;20892;-46
2022/01/09 00:53:46;;;;;;;0.70;0.70;;;;;;;;;;5041671;28;20188;-46
2022/01/09 00:56:12;;;;;;;2.30;0.90;;;;;;;;;;5039403;28;20232;-46
2022/01/09 00:58:38;;;;;;;0.82;0.80;;;;;;;;;;5038614;28;20685;-46
2022/01/09 01:01:04;;;;;;;2.72;0.95;;;;;;;;;;5040833;28;20295;-46
2022/01/09 01:03:30;;;;;;;1.60;1.00;;;;;;;;;;5023947;28;20237;-45
2022/01/09 01:05:56;;;;;;;1.05;0.90;;;;;;;;;;5028605;28;20207;-45
2022/01/09 01:08:22;;;;;;;0.80;0.80;;;;;;;;;;5038754;28;20814;-45
2022/01/09 01:10:48;;;;;;;1.00;0.73;;;;;;;;;;5035921;28;20179;-45
2022/01/09 01:13:14;;;;;;;1.00;0.90;;;;;;;;;;5038608;28;20183;-45
2022/01/09 01:15:40;;;;;;;1.10;1.00;;;;;;;;;;5043810;28;20455;-45
2022/01/09 01:18:06;;;;;;;1.05;0.88;;;;;;;;;;5027069;28;20191;-46
2022/01/09 01:20:32;;;;;;;0.82;0.80;;;;;;;;;;5026851;28;20271;-45
2022/01/09 01:22:59;;;;;;;1.08;0.98;;;;;;;;;;5016230;28;20459;-45
2022/01/09 01:25:25;;;;;;;0.60;0.60;;;;;;;;;;5031809;28;20199;-45
2022/01/09 01:27:51;;;;;;;0.85;0.85;;;;;;;;;;5026373;28;20644;-45
2022/01/09 01:30:17;;;;;;;1.23;0.90;;;;;;;;;;5027375;28;20225;-45
2022/01/09 01:32:43;;;;;;;2.03;0.73;;;;;;;;;;5024377;28;20194;-45
2022/01/09 01:35:10;;;;;;;2.35;0.80;;;;;;;;;;5024318;28;20273;-45
2022/01/09 01:37:41;;;;;;;0.88;0.88;;;;;;;;;;5033498;28;20194;-45
2022/01/09 01:40:12;;;;;;;1.00;0.90;;;;;;;;;;5023971;28;20614;-46
2022/01/09 01:42:38;;;;;;;1.48;0.85;;;;;;;;;;5028176;28;20559;-46
2022/01/09 01:45:05;;;;;;;0.75;0.70;;;;;;;;;;5034122;28;20669;-46
2022/01/09 01:47:31;;;;;;;0.77;0.77;;;;;;;;;;5039166;28;20225;-46
2022/01/09 01:49:56;;;;;;;0.95;0.88;;;;;;;;;;5027909;28;20183;-46
2022/01/09 01:52:29;;;;;;;1.00;0.88;;;;;;;;;;5028636;28;20179;-46
2022/01/09 01:54:55;;;;;;;1.00;0.90;;;;;;;;;;5039813;28;20269;-45
2022/01/09 01:57:21;;;;;;;0.75;0.70;;;;;;;;;;5036083;28;20221;-45
2022/01/09 01:59:47;;;;;;;1.02;0.80;;;;;;;;;;5034018;28;20188;-46
2022/01/09 02:02:13;;;;;;;1.17;0.88;;;;;;;;;;5032959;28;20510;-45
2022/01/09 02:04:40;;;;;;;0.80;0.80;;;;;;;;;;5020837;28;20195;-46
2022/01/09 02:07:06;;;;;;;0.80;0.80;;;;;;;;;;5029331;28;20175;-46
2022/01/09 02:09:32;;;;;;;1.15;0.90;;;;;;;;;;5026404;28;20202;-46
2022/01/09 02:11:58;;;;;;;1.27;0.90;;;;;;;;;;5031094;28;20180;-45
2022/01/09 02:14:24;;;;;;;0.82;0.80;;;;;;;;;;5040913;28;20278;-45
2022/01/09 02:16:51;;;;;;;0.80;0.80;;;;;;;;;;5038671;28;20258;-45
2022/01/09 02:19:17;;;;;;;0.85;0.85;;;;;;;;;;5046816;28;20616;-45
2022/01/09 02:21:44;;;;;;;1.15;1.00;;;;;;;;;;5023783;28;20191;-45
2022/01/09 02:24:11;;;;;;;0.98;0.70;;;;;;;;;;5030321;28;20203;-45
2022/01/09 02:26:38;;;;;;;0.70;0.70;;;;;;;;;;5036567;28;20203;-45
2022/01/09 02:29:07;;;;;;;1.00;0.90;;;;;;;;;;5038645;28;20563;-46
2022/01/09 02:31:34;;;;;;;1.00;0.88;;;;;;;;;;5036157;28;20196;-46
2022/01/09 02:34:00;;;;;;;1.48;0.95;;;;;;;;;;5035602;28;20232;-46
2022/01/09 02:36:26;;;;;;;0.70;0.70;;;;;;;;;;5035544;28;20215;-46
2022/01/09 02:38:52;;;;;;;1.05;0.75;;;;;;;;;;5033615;28;20555;-46
2022/01/09 02:41:18;;;;;;;0.93;0.70;;;;;;;;;;5033825;28;20175;-45
2022/01/09 02:43:44;;;;;;;0.98;0.82;;;;;;;;;;5037793;28;20184;-45
2022/01/09 02:46:30;;;;;;;0.98;0.70;;;;;;;;;;5036400;28;20259;-45
2022/01/09 02:48:57;;;;;;;1.00;0.90;;;;;;;;;;5033616;28;20255;-45
2022/01/09 02:51:24;;;;;;;0.50;0.50;;;;;;;;;;5026742;28;20182;-46
2022/01/09 02:53:57;;;;;;;1.23;0.93;;;;;;;;;;5035922;28;20625;-46
2022/01/09 02:56:23;;;;;;;0.93;0.88;;;;;;;;;;5041301;28;20184;-46
2022/01/09 02:58:49;;;;;;;0.70;0.70;;;;;;;;;;5036856;28;20213;-46
2022/01/09 03:01:15;;;;;;;0.80;0.68;;;;;;;;;;5021132;28;20243;-46
2022/01/09 03:03:41;;;;;;;0.60;0.60;;;;;;;;;;5030067;28;20281;-45
2022/01/09 03:06:10;;;;;;;0.60;0.60;;;;;;;;;;5039550;28;20224;-45
2022/01/09 03:08:38;;;;;;;0.70;0.70;;;;;;;;;;5039943;28;20179;-45
2022/01/09 03:11:04;;;;;;;1.75;0.68;;;;;;;;;;5040916;28;20210;-46
2022/01/09 03:13:32;;;;;;;0.82;0.82;;;;;;;;;;5033733;28;20207;-45
2022/01/09 03:15:58;;;;;;;0.77;0.60;;;;;;;;;;5049440;28;20236;-45
2022/01/09 03:18:24;;;;;;;0.73;0.70;;;;;;;;;;5038831;28;20583;-45
2022/01/09 03:20:50;;;;;;;0.77;0.75;;;;;;;;;;5040315;28;20182;-45
2022/01/09 03:23:16;;;;;;;0.73;0.73;;;;;;;;;;5024910;28;20179;-45
2022/01/09 03:25:42;;;;;;;0.70;0.70;;;;;;;;;;5046350;28;20271;-45
2022/01/09 03:28:08;;;;;;;0.57;0.57;;;;;;;;;;5041549;28;20181;-45
2022/01/09 03:30:34;;;;;;;0.82;0.70;;;;;;;;;;5040105;28;20263;-45
2022/01/09 03:33:00;;;;;;;0.50;0.50;;;;;;;;;;5035423;28;20167;-45
2022/01/09 03:35:27;;;;;;;0.93;0.70;;;;;;;;;;5036437;28;20175;-45
2022/01/09 03:37:53;;;;;;;0.80;0.77;;;;;;;;;;5031509;28;20812;-45
2022/01/09 03:40:20;;;;;;;0.73;0.52;;;;;;;;;;5048608;28;20226;-45
2022/01/09 03:42:47;;;;;;;0.90;0.90;;;;;;;;;;5036214;28;20187;-45
2022/01/09 03:45:13;;;;;;;0.60;0.60;;;;;;;;;;5046935;28;20712;-45
2022/01/09 03:47:39;;;;;;;1.10;0.40;;;;;;;;;;5025223;28;20188;-45
2022/01/09 03:50:07;;;;;;;0.60;0.60;;;;;;;;;;5042282;28;20179;-45
2022/01/09 03:52:36;;;;;;;0.60;0.60;;;;;;;;;;5023559;28;20198;-45
2022/01/09 03:55:03;;;;;;;0.70;0.70;;;;;;;;;;5026965;28;20184;-45
2022/01/09 03:57:29;;;;;;;0.60;0.60;;;;;;;;;;5029721;28;20203;-45
2022/01/09 03:59:55;;;;;;;0.70;0.70;;;;;;;;;;5053960;28;20187;-45
2022/01/09 04:02:21;;;;;;;0.55;0.55;;;;;;;;;;5031310;28;20595;-46
2022/01/09 04:04:47;;;;;;;0.90;0.80;;;;;;;;;;5040583;28;20647;-45
2022/01/09 04:07:15;;;;;;;0.60;0.60;;;;;;;;;;5041877;28;20274;-45
2022/01/09 04:09:44;;;;;;;0.60;0.60;;;;;;;;;;5038729;28;20222;-45
2022/01/09 04:12:18;;;;;;;0.80;0.80;;;;;;;;;;5040588;28;20172;-45
2022/01/09 04:14:45;;;;;;;0.70;0.65;;;;;;;;;;5036212;28;20191;-45
2022/01/09 04:17:25;;;;;;;1.85;0.70;;;;;;;;;;5047664;28;20185;-45
2022/01/09 04:19:51;;;;;;;0.55;0.55;;;;;;;;;;5036962;28;20230;-45
2022/01/09 04:22:17;;;;;;;0.50;0.50;;;;;;;;;;5035580;28;20206;-45
2022/01/09 04:24:43;;;;;;;0.50;0.50;;;;;;;;;;5041935;28;20218;-45
2022/01/09 04:27:09;;;;;;;0.70;0.70;;;;;;;;;;5047218;28;20186;-45
2022/01/09 04:29:35;;;;;;;0.57;0.50;;;;;;;;;;5041269;28;20552;-45
2022/01/09 04:32:01;;;;;;;0.50;0.50;;;;;;;;;;5041100;28;20186;-45
2022/01/09 04:34:27;;;;;;;0.70;0.70;;;;;;;;;;5028284;28;20184;-45
2022/01/09 04:36:53;;;;;;;0.90;0.80;;;;;;;;;;5036802;28;20604;-45
2022/01/09 04:39:19;;;;;;;0.63;0.50;;;;;;;;;;5046816;28;20210;-45
2022/01/09 04:41:45;;;;;;;0.60;0.60;;;;;;;;;;5034445;28;20221;-45
2022/01/09 04:44:11;;;;;;;0.85;0.55;;;;;;;;;;5042471;28;20217;-45
2022/01/09 04:46:42;;;;;;;0.40;0.40;;;;;;;;;;5039847;28;20211;-45
2022/01/09 04:49:08;;;;;;;0.73;0.55;;;;;;;;;;5028057;28;20180;-45
2022/01/09 04:51:34;;;;;;;0.45;0.45;;;;;;;;;;5040183;28;20183;-45
2022/01/09 04:54:00;;;;;;;0.98;0.75;;;;;;;;;;5029297;28;20175;-45
2022/01/09 04:56:28;;;;;;;0.82;0.60;;;;;;;;;;5034707;28;20184;-45
2022/01/09 04:58:54;;;;;;;0.40;0.40;;;;;;;;;;5044391;28;20554;-45
2022/01/09 05:01:20;;;;;;;0.50;0.50;;;;;;;;;;5032001;28;20200;-45
2022/01/09 05:03:46;;;;;;;0.60;0.60;;;;;;;;;;5038342;28;20215;-45
2022/01/09 05:06:12;;;;;;;0.47;0.47;;;;;;;;;;5046280;28;20267;-45
2022/01/09 05:08:38;;;;;;;0.95;0.77;;;;;;;;;;5017770;28;20444;-45
2022/01/09 05:11:04;;;;;;;0.65;0.65;;;;;;;;;;5031102;28;20210;-45
2022/01/09 05:13:30;;;;;;;0.60;0.60;;;;;;;;;;5039484;28;20187;-45
2022/01/09 05:15:56;;;;;;;0.50;0.50;;;;;;;;;;5039750;28;20198;-45
2022/01/09 05:18:22;;;;;;;0.73;0.50;;;;;;;;;;5030117;28;20179;-45
2022/01/09 05:20:48;;;;;;;0.77;0.60;;;;;;;;;;5047358;28;20178;-45
2022/01/09 05:23:14;;;;;;;0.57;0.50;;;;;;;;;;5028095;28;20179;-45
2022/01/09 05:25:40;;;;;;;1.38;0.55;;;;;;;;;;5037365;28;20245;-45
2022/01/09 05:28:06;;;;;;;0.80;0.50;;;;;;;;;;5028925;28;20183;-45
2022/01/09 05:30:32;;;;;;;0.57;0.57;;;;;;;;;;5039919;28;20205;-45
2022/01/09 05:32:58;;;;;;;0.60;0.60;;;;;;;;;;5024787;28;20188;-45
2022/01/09 05:35:25;;;;;;;0.40;0.40;;;;;;;;;;5050868;28;20179;-45
2022/01/09 05:37:51;;;;;;;0.63;0.60;;;;;;;;;;5029464;28;20187;-45
2022/01/09 05:40:19;;;;;;;0.52;0.47;;;;;;;;;;5036392;28;20192;-45
2022/01/09 05:42:45;;;;;;;0.60;0.50;;;;;;;;;;5021210;28;20181;-45
2022/01/09 05:45:11;;;;;;;0.75;0.40;;;;;;;;;;5044140;28;20253;-45
2022/01/09 05:47:37;;;;;;;0.52;0.47;;;;;;;;;;5033442;28;20175;-45
2022/01/09 05:50:04;;;;;;;0.82;0.50;;;;;;;;;;5047058;28;20171;-45
2022/01/09 05:52:30;;;;;;;0.60;0.60;;;;;;;;;;5027321;28;20175;-45
2022/01/09 05:54:57;;;;;;;0.40;0.40;;;;;;;;;;5035818;28;20179;-45
2022/01/09 05:57:23;;;;;;;1.02;0.40;;;;;;;;;;5039769;28;20613;-45
2022/01/09 05:59:48;;;;;;;0.50;0.50;;;;;;;;;;5042686;28;20191;-45
2022/01/09 06:02:14;;;;;;;0.32;0.32;;;;;;;;;;5026063;28;20726;-45
2022/01/09 06:04:40;;;;;;;1.77;0.52;;;;;;;;;;5039776;28;20195;-45
2022/01/09 06:07:06;;;;;;;2.05;0.50;;;;;;;;;;5042055;28;20194;-45
2022/01/09 06:09:32;;;;;;;1.60;0.60;;;;;;;;;;5048991;28;20179;-45
2022/01/09 06:11:58;;;;;;;0.50;0.50;;;;;;;;;;5033301;28;20207;-45
2022/01/09 06:14:24;;;;;;;1.05;0.60;;;;;;;;;;5027193;28;20275;-45
2022/01/09 06:16:50;;;;;;;1.35;0.43;;;;;;;;;;5036531;28;20572;-45
2022/01/09 06:19:16;;;;;;;0.45;0.40;;;;;;;;;;5018558;28;20208;-45
2022/01/09 06:21:43;;;;;;;1.92;0.40;;;;;;;;;;5032872;28;20189;-45
2022/01/09 06:24:09;;;;;;;0.40;0.40;;;;;;;;;;5018782;28;20253;-45
2022/01/09 06:26:35;;;;;;;2.42;0.50;;;;;;;;;;5038874;28;20257;-45
2022/01/09 06:29:01;;;;;;;7.90;1.83;;;;;;;;;;5033522;28;20192;-45
2022/01/09 06:31:27;;;;;;;5.97;1.40;;;;;;;;;;5033652;28;20194;-45
2022/01/09 06:33:53;;;;;;;8.35;2.20;;;;;;;;;;5024746;28;20188;-45
2022/01/09 06:36:19;;;;;;;14.25;3.00;;;;;;;;;;5041219;28;20191;-45
2022/01/09 06:38:45;;;;;;;12.63;2.90;;;;;;;;;;5037576;28;20198;-45
2022/01/09 06:41:11;;;;;;;12.45;3.28;;;;;;;;;;5042925;28;20480;-45
2022/01/09 06:43:37;;;;;;;11.48;2.50;;;;;;;;;;5044397;28;20206;-45
2022/01/09 06:46:03;;;;;;;8.50;2.72;;;;;;;;;;5042957;28;20595;-45
2022/01/09 06:48:29;;;;;;;13.82;2.83;;;;;;;;;;5029589;28;20180;-45
2022/01/09 06:50:55;;;;;;;8.55;2.40;;;;;;;;;;5028221;28;20191;-45
2022/01/09 06:53:21;;;;;;;13.45;2.60;;;;;;;;;;5039544;28;20270;-45
2022/01/09 06:55:47;;;;;;;9.20;1.83;;;;;;;;;;5032651;28;20563;-45
2022/01/09 06:58:14;;;;;;;4.47;2.00;;;;;;;;;;5024543;28;20196;-45
2022/01/09 07:00:40;;;;;;;5.05;1.75;;;;;;;;;;5041633;28;20199;-45
2022/01/09 07:03:06;;;;;;;4.28;1.50;;;;;;;;;;5033994;28;20282;-45
2022/01/09 07:05:32;;;;;;;4.82;1.20;;;;;;;;;;5048384;28;20210;-45
2022/01/09 07:07:58;;;;;;;4.35;1.58;;;;;;;;;;5028809;28;20467;-45
2022/01/09 07:10:25;;;;;;;4.18;1.50;;;;;;;;;;5032588;28;20263;-45
2022/01/09 07:12:51;;;;;;;4.18;1.50;;;;;;;;;;5030588;28;20583;-45
2022/01/09 07:15:17;;;;;;;4.65;1.20;;;;;;;;;;5047046;28;20256;-45
2022/01/09 07:17:43;;;;;;;3.83;1.20;;;;;;;;;;5033320;28;20214;-45
2022/01/09 07:20:09;;;;;;;4.57;1.75;;;;;;;;;;5040720;28;20555;-44
2022/01/09 07:22:35;;;;;;;2.88;1.10;;;;;;;;;;5035499;28;20207;-45
2022/01/09 07:25:01;;;;;;;3.70;1.17;;;;;;;;;;5048722;28;20195;-45
2022/01/09 07:27:27;;;;;;;4.03;1.20;;;;;;;;;;5031558;28;20217;-45
2022/01/09 07:29:53;;;;;;;6.75;1.30;;;;;;;;;;5044516;28;20445;-45
2022/01/09 07:32:19;;;;;;;2.67;1.13;;;;;;;;;;5031452;28;20185;-45
2022/01/09 07:34:46;;;;;;;3.35;1.27;;;;;;;;;;5027494;28;20274;-45
2022/01/09 07:37:12;;;;;;;3.00;1.33;;;;;;;;;;5032197;28;20197;-45
2022/01/09 07:39:38;;;;;;;1.92;0.90;;;;;;;;;;5024200;28;20199;-45
2022/01/09 07:42:05;;;;;;;1.83;0.90;;;;;;;;;;5029783;28;20531;-45
2022/01/09 07:44:30;;;;;;;1.90;0.93;;;;;;;;;;5049537;28;20278;-45
2022/01/09 07:46:56;;;;;;;3.80;0.85;;;;;;;;;;5027140;28;20317;-45
2022/01/09 07:49:23;;;;;;;2.78;0.90;;;;;;;;;;5030469;28;20195;-45
2022/01/09 07:51:50;;;;;;;2.53;0.80;;;;;;;;;;5027236;28;20181;-45
2022/01/09 07:54:16;;;;;;;3.05;0.85;;;;;;;;;;5030357;28;20187;-45
2022/01/09 07:56:42;;;;;;;2.15;0.85;;;;;;;;;;5022425;28;21994;-45
2022/01/09 07:59:08;;;;;;;0.98;0.70;;;;;;;;;;5043717;28;20558;-45
2022/01/09 08:01:34;;;;;;;1.58;0.88;;;;;;;;;;5043632;28;20231;-45
2022/01/09 08:04:00;;;;;;;1.35;1.00;;;;;;;;;;5039412;28;20195;-45
2022/01/09 08:06:25;;;;;;;3.33;1.15;;;;;;;;;;5038630;28;20219;-45
2022/01/09 08:08:52;;;;;;;3.15;0.90;;;;;;;;;;5041895;28;20206;-48
2022/01/09 08:11:18;;;;;;;1.45;0.80;;;;;;;;;;5026476;28;20177;-52
2022/01/09 08:13:44;;;;;;;3.10;0.90;;;;;;;;;;5036958;28;20183;-49
2022/01/09 08:16:10;;;;;;;6.53;1.40;;;;;;;;;;5034958;28;20195;-49
2022/01/09 08:18:36;;;;;;;3.33;1.50;;;;;;;;;;5040347;28;20267;-54
2022/01/09 08:21:02;;;;;;;4.45;1.40;;;;;;;;;;5033877;28;20187;-47
2022/01/09 08:23:28;;;;;;;2.75;1.33;;;;;;;;;;5040606;28;20596;-49
2022/01/09 08:25:54;;;;;;;2.85;1.30;;;;;;;;;;5034988;28;20244;-49
2022/01/09 08:28:20;;;;;;;2.65;1.27;;;;;;;;;;5027287;28;20176;-49
2022/01/09 08:30:46;;;;;;;2.00;1.15;;;;;;;;;;5026368;28;20458;-50
2022/01/09 08:33:12;;;;;;;2.25;1.48;;;;;;;;;;5044364;28;20237;-49
2022/01/09 08:35:38;;;;;;;2.05;1.20;;;;;;;;;;5039772;28;20787;-49
2022/01/09 08:38:04;;;;;;;2.40;1.60;;;;;;;;;;5036744;28;20183;-51
2022/01/09 08:40:30;;;;;;;2.90;1.25;;;;;;;;;;5045775;28;20566;-49
2022/01/09 08:42:56;;;;;;;2.30;1.02;;;;;;;;;;5030077;28;20193;-48
2022/01/09 08:45:23;;;;;;;4.05;1.40;;;;;;;;;;5053589;28;20199;-50
2022/01/09 08:47:49;;;;;;;4.10;1.27;;;;;;;;;;5038462;28;20258;-49
2022/01/09 08:50:18;;;;;;;3.05;1.17;;;;;;;;;;5026796;28;20180;-49
2022/01/09 08:52:44;;;;;;;10.68;1.20;;;;;;;;;;5038234;28;20238;-49
2022/01/09 08:55:10;;;;;;;2.60;1.00;;;;;;;;;;5035091;28;20462;-49
2022/01/09 08:57:36;;;;;;;5.78;1.00;;;;;;;;;;5028783;28;20207;-49
2022/01/09 09:00:04;;;;;;;3.15;1.05;;;;;;;;;;5038830;28;20205;-49
2022/01/09 09:02:30;;;;;;;2.75;1.30;;;;;;;;;;5013993;28;20224;-48
2022/01/09 09:04:56;;;;;;;3.25;1.00;;;;;;;;;;5049414;28;20217;-49
2022/01/09 09:07:24;;;;;;;4.50;1.10;;;;;;;;;;5041039;28;20175;-49
2022/01/09 09:09:51;;;;;;;7.20;1.15;;;;;;;;;;5046686;28;20175;-49
2022/01/09 09:12:17;;;;;;;4.78;0.98;;;;;;;;;;5043880;28;20175;-50
2022/01/09 09:14:43;;;;;;;2.92;0.82;;;;;;;;;;5042595;28;20539;-49
2022/01/09 09:17:09;;;;;;;5.72;1.20;;;;;;;;;;5038739;28;20229;-48
2022/01/09 09:19:35;;;;;;;1.48;1.02;;;;;;;;;;5044628;28;20432;-49
2022/01/09 09:22:01;;;;;;;2.90;0.88;;;;;;;;;;5045997;28;20183;-48
2022/01/09 09:24:27;;;;;;;1.60;0.90;;;;;;;;;;5041295;28;20221;-49
2022/01/09 09:26:53;;;;;;;3.72;1.10;;;;;;;;;;5032711;28;20183;-49
2022/01/09 09:29:20;;;;;;;1.40;0.90;;;;;;;;;;5036049;28;20193;-49
2022/01/09 09:31:46;;;;;;;0.93;0.82;;;;;;;;;;5027076;28;20184;-49
2022/01/09 09:34:12;;;;;;;2.22;1.00;;;;;;;;;;5039800;28;20186;-49
2022/01/09 09:36:38;;;;;;;1.55;0.90;;;;;;;;;;5024186;28;20268;-49
2022/01/09 09:39:05;;;;;;;2.75;0.75;;;;;;;;;;5043773;28;20261;-49
2022/01/09 09:41:31;;;;;;;0.90;0.60;;;;;;;;;;5043049;28;20229;-49
2022/01/09 09:43:57;;;;;;;2.88;0.90;;;;;;;;;;5042606;28;20179;-49
2022/01/09 09:46:24;;;;;;;1.75;0.82;;;;;;;;;;5040243;28;20342;-49
2022/01/09 09:48:50;;;;;;;1.77;0.60;;;;;;;;;;5034371;28;20177;-49
2022/01/09 09:51:17;;;;;;;1.58;0.60;;;;;;;;;;5042871;28;20191;-49
2022/01/09 09:53:43;;;;;;;3.28;0.75;;;;;;;;;;5030824;28;20190;-49
2022/01/09 09:56:09;;;;;;;1.02;0.70;;;;;;;;;;5028173;28;20195;-48
2022/01/09 09:58:38;;;;;;;1.00;0.70;;;;;;;;;;5042904;28;20196;-48
2022/01/09 10:01:04;;;;;;;1.85;0.85;;;;;;;;;;5036087;28;20202;-49
2022/01/09 10:03:31;;;;;;;1.42;0.68;;;;;;;;;;5043556;28;20195;-49
2022/01/09 10:05:57;;;;;;;2.58;0.73;;;;;;;;;;5036729;28;20203;-48
2022/01/09 10:08:34;;;;;;;0.82;0.50;;;;;;;;;;5031787;28;20183;-49
2022/01/09 10:11:00;;;;;;;2.13;0.70;;;;;;;;;;5038124;28;20262;-49
2022/01/09 10:13:26;;;;;;;0.60;0.60;;;;;;;;;;5027377;28;20332;-48
2022/01/09 10:16:01;;;;;;;1.30;0.60;;;;;;;;;;5043481;28;20180;-50
2022/01/09 10:18:41;;;;;;;2.72;0.60;;;;;;;;;;5033384;28;20219;-49
2022/01/09 10:21:08;;;;;;;0.50;0.50;;;;;;;;;;5029093;28;20637;-49
2022/01/09 10:23:34;;;;;;;1.05;0.65;;;;;;;;;;5032236;28;20230;-49
2022/01/09 10:26:11;;;;;;;0.95;0.38;;;;;;;;;;5031405;28;20467;-48
2022/01/09 10:28:38;;;;;;;0.60;0.60;;;;;;;;;;5033367;28;20204;-49
2022/01/09 10:31:14;;;;;;;1.00;0.70;;;;;;;;;;5047084;28;20179;-49
2022/01/09 10:33:40;;;;;;;1.45;0.60;;;;;;;;;;5029192;28;20180;-49
2022/01/09 10:36:06;;;;;;;1.45;0.60;;;;;;;;;;5033837;28;20442;-49
2022/01/09 10:38:32;;;;;;;0.50;0.50;;;;;;;;;;5032100;28;20187;-50
2022/01/09 10:41:00;;;;;;;0.50;0.50;;;;;;;;;;5047361;28;20183;-49
2022/01/09 10:43:37;;;;;;;1.13;0.57;;;;;;;;;;5042353;28;20183;-48
2022/01/09 10:46:04;;;;;;;0.77;0.60;;;;;;;;;;5023603;28;20199;-49
2022/01/09 10:48:32;;;;;;;0.90;0.50;;;;;;;;;;5034573;28;20484;-49
2022/01/09 10:50:59;;;;;;;0.63;0.52;;;;;;;;;;5026878;28;20192;-48
2022/01/09 10:53:30;;;;;;;0.77;0.60;;;;;;;;;;5030061;28;20249;-49
2022/01/09 10:56:11;;;;;;;0.55;0.50;;;;;;;;;;5045161;28;20294;-50
2022/01/09 10:58:42;;;;;;;0.70;0.70;;;;;;;;;;5041245;28;20189;-48
2022/01/09 11:01:11;;;;;;;2.45;1.85;;;;;;;;;;5043033;28;20214;-49
2022/01/09 11:03:37;;;;;;;5.88;3.33;;;;;;;;;;5044176;28;20219;-49
2022/01/09 11:06:04;;;;;;;9.90;7.45;;;;;;;;;;5033430;28;20210;-49
2022/01/09 11:08:30;;;;;;;16.05;12.02;;;;;;;;;;5042980;28;20179;-48
2022/01/09 11:10:57;;;;;;;58.03;36.63;;;;;;;;;;5038975;28;20858;-50
2022/01/09 11:13:25;;;;;;;43.35;28.80;;;;;;;;;;5019669;28;20176;-50
2022/01/09 11:18:40;;;;;;;40.50;27.08;;;;;;;;;;5044801;28;20294;-51
2022/01/09 11:21:06;;;;;;;37.95;27.98;;;;;;;;;;5032293;28;20600;-50
2022/01/09 11:23:44;;;;;;;39.55;26.13;;;;;;;;;;5040301;28;20188;-50
2022/01/09 11:26:13;;;;;;;36.33;25.42;;;;;;;;;;5028282;28;20206;-50
2022/01/09 11:28:42;;;;;;;37.83;26.70;;;;;;;;;;5051764;28;20207;-50
2022/01/09 11:31:08;;;;;;;35.85;24.67;;;;;;;;;;5044857;28;20173;-51
2022/01/09 11:34:06;;;;;;;38.25;24.45;;;;;;;;;;5033828;28;20598;-50
2022/01/09 11:36:42;;;;;;;38.95;24.15;;;;;;;;;;4998533;28;20195;-49
2022/01/09 11:39:17;;;;;;;35.70;23.02;;;;;;;;;;5036058;28;20268;-50
2022/01/09 11:41:44;;;;;;;38.03;22.67;;;;;;;;;;5041184;28;20190;-49
2022/01/09 11:44:15;;;;;;;36.60;21.23;;;;;;;;;;5033928;28;20241;-50
2022/01/09 11:47:00;;;;;;;27.25;19.95;;;;;;;;;;5029998;28;20555;-49
2022/01/09 11:49:27;;;;;;;29.70;19.13;;;;;;;;;;5038132;28;20192;-50
2022/01/09 11:51:59;;;;;;;32.85;19.60;;;;;;;;;;5032634;28;20207;-50
2022/01/09 11:54:25;;;;;;;26.42;17.58;;;;;;;;;;5051742;28;20466;-50
2022/01/09 11:57:06;;;;;;;29.00;17.15;;;;;;;;;;5037693;28;20196;-50
2022/01/09 11:59:37;;;;;;;28.88;17.33;;;;;;;;;;5035391;28;20203;-51
2022/01/09 12:02:28;;;;;;;25.02;15.55;;;;;;;;;;5034274;28;20203;-50
2022/01/09 12:04:55;;;;;;;24.05;14.52;;;;;;;;;;5041396;28;20298;-49
2022/01/09 12:07:34;;;;;;;22.63;13.38;;;;;;;;;;5040810;28;20238;-50
2022/01/09 12:10:01;;;;;;;20.00;12.85;;;;;;;;;;5032020;28;20175;-50
2022/01/09 12:12:33;;;;;;;19.58;11.32;;;;;;;;;;5041888;28;20176;-50
2022/01/09 12:15:04;;;;;;;22.27;10.88;;;;;;;;;;5032640;28;20437;-50
2022/01/09 12:17:40;;;;;;;18.60;10.63;;;;;;;;;;5038268;28;20434;-50
2022/01/09 12:20:15;;;;;;;21.27;10.82;;;;;;;;;;5027094;28;20188;-49
2022/01/09 12:25:07;;;;;;;20.77;11.80;;;;;;;;;;5043335;28;20289;-50
2022/01/09 12:27:38;;;;;;;22.92;13.40;;;;;;;;;;5042500;28;20587;-50
2022/01/09 12:30:04;;;;;;;24.95;14.27;;;;;;;;;;5022094;28;20165;-50
2022/01/09 12:32:40;;;;;;;19.65;12.93;;;;;;;;;;5026398;28;20235;-50
2022/01/09 12:35:16;;;;;;;20.15;13.05;;;;;;;;;;5030914;28;20183;-50
2022/01/09 12:37:49;;;;;;;20.38;11.57;;;;;;;;;;5027220;28;20468;-51
2022/01/09 12:40:17;;;;;;;23.95;11.30;;;;;;;;;;5013050;28;20498;-50
2022/01/09 12:42:46;;;;;;;17.45;9.80;;;;;;;;;;5028306;28;20198;-50
2022/01/09 12:45:26;;;;;;;18.27;9.75;;;;;;;;;;5042959;28;20213;-50
2022/01/09 12:47:52;;;;;;;13.23;8.57;;;;;;;;;;5043664;28;20183;-50
2022/01/09 12:50:25;;;;;;;13.38;8.05;;;;;;;;;;5019169;28;20183;-50
2022/01/09 12:52:51;;;;;;;19.88;8.60;;;;;;;;;;5039310;28;20297;-50
2022/01/09 12:55:17;;;;;;;10.88;7.03;;;;;;;;;;5041005;28;20241;-49
2022/01/09 12:57:53;;;;;;;15.75;8.10;;;;;;;;;;5039586;28;20191;-50
2022/01/09 13:00:26;;;;;;;13.75;7.03;;;;;;;;;;5037771;28;20549;-50
2022/01/09 13:02:53;;;;;;;14.90;6.18;;;;;;;;;;5041919;28;20212;-50
2022/01/09 13:05:23;;;;;;;11.80;6.55;;;;;;;;;;5043120;28;20232;-50
2022/01/09 13:07:59;;;;;;;10.32;6.10;;;;;;;;;;5045214;28;20252;-50
2022/01/09 13:10:31;;;;;;;9.82;5.55;;;;;;;;;;5031049;28;20190;-50
2022/01/09 13:13:04;;;;;;;11.30;5.65;;;;;;;;;;5044867;28;20187;-50
2022/01/09 13:15:31;;;;;;;8.82;5.75;;;;;;;;;;5035339;28;20242;-50
2022/01/09 13:17:57;;;;;;;10.48;5.10;;;;;;;;;;5046699;28;20203;-51
2022/01/09 13:20:24;;;;;;;9.60;4.80;;;;;;;;;;5035959;28;20639;-50
2022/01/09 13:23:01;;;;;;;9.52;4.53;;;;;;;;;;5041831;28;20206;-50
2022/01/09 13:25:27;;;;;;;7.28;3.97;;;;;;;;;;5036168;28;20194;-50
2022/01/09 13:27:53;;;;;;;6.13;4.07;;;;;;;;;;5040907;28;20184;-50
2022/01/09 13:30:21;;;;;;;9.10;4.97;;;;;;;;;;5029819;28;20263;-50
2022/01/09 13:32:47;;;;;;;9.85;3.70;;;;;;;;;;5044868;28;20191;-50
2022/01/09 13:35:13;;;;;;;10.15;4.20;;;;;;;;;;5045616;28;20225;-50
2022/01/09 13:37:40;;;;;;;7.38;3.30;;;;;;;;;;5045600;28;20484;-49
2022/01/09 13:40:07;;;;;;;8.63;3.42;;;;;;;;;;5030310;28;20221;-50
2022/01/09 13:42:33;;;;;;;4.75;3.20;;;;;;;;;;5048097;28;20206;-50
2022/01/09 13:45:15;;;;;;;5.72;3.22;;;;;;;;;;5038775;28;20282;-50
2022/01/09 13:47:45;;;;;;;6.20;3.10;;;;;;;;;;5040429;28;20176;-51
2022/01/09 13:50:12;;;;;;;6.85;2.80;;;;;;;;;;5025700;28;20214;-50
2022/01/09 13:52:38;;;;;;;5.90;2.58;;;;;;;;;;5031535;28;20204;-50
2022/01/09 13:55:04;;;;;;;9.77;3.38;;;;;;;;;;5041112;28;20203;-50
2022/01/09 13:57:30;;;;;;;5.38;2.35;;;;;;;;;;5036870;28;20187;-50
2022/01/09 13:59:59;;;;;;;5.85;2.50;;;;;;;;;;5031554;28;20191;-50
2022/01/09 14:02:26;;;;;;;4.97;2.75;;;;;;;;;;5028530;28;20188;-51
2022/01/09 14:05:10;;;;;;;4.32;2.60;;;;;;;;;;5030539;28;20203;-50
2022/01/09 14:07:37;;;;;;;4.10;2.40;;;;;;;;;;5039544;28;20506;-50
2022/01/09 14:10:04;;;;;;;5.25;2.50;;;;;;;;;;5036147;28;20279;-50
2022/01/09 14:12:31;;;;;;;5.75;2.10;;;;;;;;;;5045916;28;20183;-51
2022/01/09 14:14:57;;;;;;;4.65;2.45;;;;;;;;;;5034498;28;20204;-50
2022/01/09 14:17:23;;;;;;;4.85;2.20;;;;;;;;;;5046740;28;20214;-50
2022/01/09 14:19:49;;;;;;;5.35;1.90;;;;;;;;;;5027892;28;20677;-50
2022/01/09 14:22:15;;;;;;;4.93;2.22;;;;;;;;;;5035776;28;20212;-50
2022/01/09 14:24:58;;;;;;;2.75;1.95;;;;;;;;;;5042501;28;20270;-50
2022/01/09 14:27:25;;;;;;;2.00;1.63;;;;;;;;;;5050643;28;20197;-50
2022/01/09 14:29:51;;;;;;;4.38;1.88;;;;;;;;;;5028612;28;20191;-50
2022/01/09 14:32:18;;;;;;;2.30;1.67;;;;;;;;;;5029261;28;20280;-50
2022/01/09 14:34:44;;;;;;;4.13;1.70;;;;;;;;;;5034313;28;20239;-51
2022/01/09 14:37:11;;;;;;;3.00;1.80;;;;;;;;;;5030839;28;20436;-50
2022/01/09 14:39:37;;;;;;;3.05;1.83;;;;;;;;;;5028061;28;20275;-50
2022/01/09 14:42:06;;;;;;;3.50;1.73;;;;;;;;;;5049902;28;20262;-50
2022/01/09 14:44:33;;;;;;;2.25;1.70;;;;;;;;;;5040001;28;20204;-50
2022/01/09 14:46:59;;;;;;;3.10;1.55;;;;;;;;;;5038554;28;20186;-50